createdAt,value
2017-02-04T00:00:17.722Z,1
2017-02-04T00:00:36.355Z,1
2017-02-04T00:00:54.987Z,1
2017-02-04T00:01:13.616Z,1
2017-02-04T00:01:32.244Z,1
2017-02-04T00:01:50.890Z,1
2017-02-04T00:02:09.535Z,1
2017-02-04T00:02:28.191Z,0.9
2017-02-04T00:02:46.823Z,0.9
2017-02-04T00:03:05.460Z,0.9
2017-02-04T00:03:24.101Z,0.9
2017-02-04T00:03:42.771Z,0.9
2017-02-04T00:04:01.404Z,0.9
2017-02-04T00:04:20.039Z,0.9
2017-02-04T00:04:38.683Z,0.9
2017-02-04T00:04:57.324Z,0.9
2017-02-04T00:05:15.958Z,0.8
2017-02-04T00:05:34.592Z,0.8
2017-02-04T00:05:53.225Z,0.8
2017-02-04T00:06:11.865Z,0.8
2017-02-04T00:06:30.500Z,0.8
2017-02-04T00:06:49.145Z,0.9
2017-02-04T00:07:07.801Z,0.9
2017-02-04T00:07:26.435Z,0.9
2017-02-04T00:07:45.074Z,0.8
2017-02-04T00:08:03.711Z,0.9
2017-02-04T00:08:22.350Z,0.9
2017-02-04T00:08:40.982Z,0.9
2017-02-04T00:08:59.611Z,1
2017-02-04T00:09:18.257Z,1
2017-02-04T00:09:36.891Z,1
2017-02-04T00:09:55.535Z,1
2017-02-04T00:10:14.184Z,1
2017-02-04T00:10:32.814Z,1
2017-02-04T00:10:51.453Z,1
2017-02-04T00:11:10.085Z,1
2017-02-04T00:11:28.727Z,1
2017-02-04T00:11:47.370Z,1
2017-02-04T00:12:06.018Z,1
2017-02-04T00:12:24.652Z,1
2017-02-04T00:12:43.289Z,1
2017-02-04T00:13:01.933Z,1
2017-02-04T00:13:20.562Z,1
2017-02-04T00:13:39.222Z,1
2017-02-04T00:13:57.856Z,1
2017-02-04T00:14:16.488Z,1
2017-02-04T00:14:35.118Z,1
2017-02-04T00:14:53.751Z,1
2017-02-04T00:15:12.381Z,1
2017-02-04T00:15:31.014Z,1
2017-02-04T00:15:49.649Z,1.1
2017-02-04T00:16:08.280Z,1.1
2017-02-04T00:16:26.915Z,1.1
2017-02-04T00:16:45.550Z,1.1
2017-02-04T00:17:04.213Z,1.1
2017-02-04T00:17:22.857Z,1.1
2017-02-04T00:17:41.494Z,1.2
2017-02-04T00:18:00.129Z,1.2
2017-02-04T00:18:18.780Z,1.2
2017-02-04T00:18:37.415Z,1.2
2017-02-04T00:18:56.047Z,1.2
2017-02-04T00:19:14.681Z,1.2
2017-02-04T00:19:33.312Z,1.2
2017-02-04T00:19:51.942Z,1.2
2017-02-04T00:20:10.589Z,1.2
2017-02-04T00:20:29.253Z,1.2
2017-02-04T00:20:47.890Z,1.3
2017-02-04T00:21:06.523Z,1.3
2017-02-04T00:21:25.152Z,1.3
2017-02-04T00:21:43.789Z,1.3
2017-02-04T00:22:02.426Z,1.3
2017-02-04T00:22:21.064Z,1.3
2017-02-04T00:22:39.698Z,1.3
2017-02-04T00:22:58.331Z,1.3
2017-02-04T00:23:16.967Z,1.3
2017-02-04T00:23:35.615Z,1.3
2017-02-04T00:23:54.282Z,1.3
2017-02-04T00:24:12.913Z,1.4
2017-02-04T00:24:31.549Z,1.4
2017-02-04T00:24:50.187Z,1.4
2017-02-04T00:25:08.821Z,1.4
2017-02-04T00:25:27.461Z,1.4
2017-02-04T00:25:46.096Z,1.4
2017-02-04T00:26:04.731Z,1.4
2017-02-04T00:26:23.364Z,1.4
2017-02-04T00:26:41.997Z,1.4
2017-02-04T00:27:00.637Z,1.4
2017-02-04T00:27:19.306Z,1.4
2017-02-04T00:27:37.941Z,1.4
2017-02-04T00:27:56.578Z,1.4
2017-02-04T00:28:15.210Z,1.4
2017-02-04T00:28:33.840Z,1.4
2017-02-04T00:28:52.489Z,1.4
2017-02-04T00:29:11.120Z,1.4
2017-02-04T00:29:29.754Z,1.4
2017-02-04T00:29:48.388Z,1.4
2017-02-04T00:30:07.020Z,1.4
2017-02-04T00:30:25.646Z,1.4
2017-02-04T00:30:44.307Z,1.4
2017-02-04T00:31:02.938Z,1.4
2017-02-04T00:31:21.574Z,1.4
2017-02-04T00:31:40.214Z,1.5
2017-02-04T00:31:58.842Z,1.6
2017-02-04T00:32:17.484Z,1.7
2017-02-04T00:32:36.117Z,1.7
2017-02-04T00:32:54.758Z,1.7
2017-02-04T00:33:13.387Z,1.7
2017-02-04T00:33:32.018Z,1.8
2017-02-04T00:33:50.660Z,1.8
2017-02-04T00:34:09.331Z,1.8
2017-02-04T00:34:27.963Z,1.8
2017-02-04T00:34:46.595Z,1.9
2017-02-04T00:35:05.224Z,2
2017-02-04T00:35:23.859Z,2
2017-02-04T00:35:42.493Z,2
2017-02-04T00:36:01.130Z,2.1
2017-02-04T00:36:19.768Z,2.1
2017-02-04T00:36:38.396Z,2.1
2017-02-04T00:36:57.027Z,2.1
2017-02-04T00:37:15.663Z,2.2
2017-02-04T00:37:34.325Z,2.2
2017-02-04T00:37:52.962Z,2.2
2017-02-04T00:38:11.592Z,2.1
2017-02-04T00:38:30.231Z,2.1
2017-02-04T00:38:48.864Z,2.2
2017-02-04T00:39:07.503Z,2.2
2017-02-04T00:39:26.151Z,2.2
2017-02-04T00:39:44.783Z,2.2
2017-02-04T00:40:03.427Z,2.2
2017-02-04T00:40:22.083Z,2.3
2017-02-04T00:40:40.718Z,2.3
2017-02-04T00:40:59.364Z,2.4
2017-02-04T00:41:17.998Z,2.4
2017-02-04T00:41:36.630Z,2.4
2017-02-04T00:41:55.266Z,2.4
2017-02-04T00:42:13.897Z,2.5
2017-02-04T00:42:32.577Z,2.6
2017-02-04T00:42:51.215Z,2.6
2017-02-04T00:43:09.849Z,2.6
2017-02-04T00:43:28.483Z,2.6
2017-02-04T00:43:47.119Z,2.7
2017-02-04T00:44:05.749Z,2.7
2017-02-04T00:44:24.379Z,2.7
2017-02-04T00:44:43.024Z,2.8
2017-02-04T00:45:01.664Z,2.8
2017-02-04T00:45:20.304Z,2.8
2017-02-04T00:45:38.939Z,2.9
2017-02-04T00:45:57.627Z,2.9
2017-02-04T00:46:16.262Z,2.9
2017-02-04T00:46:34.906Z,3
2017-02-04T00:46:53.540Z,3
2017-02-04T00:47:12.176Z,3
2017-02-04T00:47:30.810Z,3
2017-02-04T00:47:49.450Z,3
2017-02-04T00:48:08.092Z,3
2017-02-04T00:48:26.724Z,3
2017-02-04T00:48:45.361Z,3
2017-02-04T00:49:04.011Z,3
2017-02-04T00:49:22.649Z,3
2017-02-04T00:49:41.283Z,3
2017-02-04T00:49:59.930Z,3
2017-02-04T00:50:18.559Z,3.1
2017-02-04T00:50:37.187Z,3.1
2017-02-04T00:50:55.823Z,3.1
2017-02-04T00:51:14.457Z,3.1
2017-02-04T00:51:33.085Z,3.1
2017-02-04T00:51:51.722Z,3.1
2017-02-04T00:52:10.354Z,3.1
2017-02-04T00:52:29.002Z,3.1
2017-02-04T00:52:47.640Z,3.1
2017-02-04T00:53:06.271Z,3.1
2017-02-04T00:53:24.904Z,3.1
2017-02-04T00:53:43.556Z,3.1
2017-02-04T00:54:02.190Z,3.1
2017-02-04T00:54:20.828Z,3.1
2017-02-04T00:54:39.459Z,3.2
2017-02-04T00:54:58.101Z,3.2
2017-02-04T00:55:16.746Z,3.3
2017-02-04T00:55:35.382Z,3.4
2017-02-04T00:55:54.038Z,3.4
2017-02-04T00:56:12.667Z,3.4
2017-02-04T00:56:31.303Z,3.5
2017-02-04T00:56:49.944Z,3.5
2017-02-04T00:57:08.575Z,3.6
2017-02-04T00:57:27.211Z,3.6
2017-02-04T00:57:45.858Z,3.6
2017-02-04T00:58:04.501Z,3.6
2017-02-04T00:58:23.137Z,3.6
2017-02-04T00:58:41.775Z,3.6
2017-02-04T00:59:00.408Z,3.6
2017-02-04T00:59:19.075Z,3.7
2017-02-04T00:59:37.714Z,3.7
2017-02-04T00:59:56.348Z,3.7
2017-02-04T01:00:14.985Z,3.7
2017-02-04T01:00:33.640Z,3.7
2017-02-04T01:00:52.280Z,3.7
2017-02-04T01:01:10.908Z,3.7
2017-02-04T01:01:29.544Z,3.7
2017-02-04T01:01:48.184Z,3.7
2017-02-04T01:02:06.820Z,3.7
2017-02-04T01:02:25.451Z,3.7
2017-02-04T01:02:44.113Z,3.7
2017-02-04T01:03:02.748Z,3.7
2017-02-04T01:03:21.383Z,3.7
2017-02-04T01:03:40.020Z,3.6
2017-02-04T01:03:58.652Z,3.6
2017-02-04T01:04:17.281Z,3.6
2017-02-04T01:04:35.918Z,3.6
2017-02-04T01:04:54.549Z,3.6
2017-02-04T01:05:13.183Z,3.6
2017-02-04T01:05:31.816Z,3.7
2017-02-04T01:05:50.453Z,3.7
2017-02-04T01:06:09.125Z,3.7
2017-02-04T01:06:27.757Z,3.8
2017-02-04T01:06:46.390Z,3.8
2017-02-04T01:07:05.024Z,3.8
2017-02-04T01:07:23.653Z,3.8
2017-02-04T01:07:42.289Z,3.8
2017-02-04T01:08:00.923Z,3.9
2017-02-04T01:08:19.559Z,3.9
2017-02-04T01:08:38.199Z,3.9
2017-02-04T01:08:56.878Z,3.9
2017-02-04T01:09:15.520Z,4
2017-02-04T01:09:34.188Z,4
2017-02-04T01:09:52.818Z,3.9
2017-02-04T01:10:11.449Z,3.9
2017-02-04T01:10:30.089Z,3.9
2017-02-04T01:10:48.722Z,3.9
2017-02-04T01:11:07.369Z,3.9
2017-02-04T01:11:26.001Z,3.9
2017-02-04T01:11:44.638Z,3.9
2017-02-04T01:12:03.279Z,3.9
2017-02-04T01:12:21.920Z,3.9
2017-02-04T01:12:40.555Z,4
2017-02-04T01:12:59.235Z,4
2017-02-04T01:13:17.869Z,4
2017-02-04T01:13:36.508Z,4
2017-02-04T01:13:55.146Z,4
2017-02-04T01:14:13.782Z,4
2017-02-04T01:14:32.456Z,4
2017-02-04T01:14:51.096Z,4.1
2017-02-04T01:15:09.725Z,4.1
2017-02-04T01:15:28.366Z,4.1
2017-02-04T01:15:47.006Z,4.1
2017-02-04T01:16:05.638Z,4.1
2017-02-04T01:16:24.290Z,4.1
2017-02-04T01:16:42.927Z,4.1
2017-02-04T01:17:01.559Z,4.1
2017-02-04T01:17:20.187Z,4.1
2017-02-04T01:17:38.826Z,4.1
2017-02-04T01:17:57.501Z,4.1
2017-02-04T01:18:16.142Z,4.2
2017-02-04T01:18:34.779Z,4.2
2017-02-04T01:18:53.406Z,4.2
2017-02-04T01:19:12.039Z,4.2
2017-02-04T01:19:30.681Z,4.2
2017-02-04T01:19:49.314Z,4.2
2017-02-04T01:20:07.948Z,4.2
2017-02-04T01:20:26.588Z,4.3
2017-02-04T01:20:45.227Z,4.3
2017-02-04T01:21:03.881Z,4.3
2017-02-04T01:21:22.519Z,4.3
2017-02-04T01:21:41.166Z,4.3
2017-02-04T01:21:59.794Z,4.3
2017-02-04T01:22:18.423Z,4.3
2017-02-04T01:22:37.057Z,4.4
2017-02-04T01:22:55.688Z,4.4
2017-02-04T01:23:14.331Z,4.3
2017-02-04T01:23:32.968Z,4.3
2017-02-04T01:23:51.598Z,4.3
2017-02-04T01:24:10.232Z,4.3
2017-02-04T01:24:28.889Z,4.2
2017-02-04T01:24:47.526Z,4.2
2017-02-04T01:25:06.161Z,4.2
2017-02-04T01:25:24.798Z,4.2
2017-02-04T01:25:43.435Z,4.2
2017-02-04T01:26:02.073Z,4.2
2017-02-04T01:26:20.705Z,4.2
2017-02-04T01:26:39.340Z,4.2
2017-02-04T01:26:57.993Z,4.2
2017-02-04T01:27:16.626Z,4.3
2017-02-04T01:27:35.263Z,4.3
2017-02-04T01:27:53.924Z,4.2
2017-02-04T01:28:12.559Z,4.2
2017-02-04T01:28:31.192Z,4.2
2017-02-04T01:28:49.830Z,4.1
2017-02-04T01:29:08.461Z,4.1
2017-02-04T01:29:27.103Z,4.1
2017-02-04T01:29:45.735Z,4.1
2017-02-04T01:30:04.371Z,4.1
2017-02-04T01:30:23.012Z,4.1
2017-02-04T01:30:41.653Z,4.1
2017-02-04T01:31:00.289Z,4.1
2017-02-04T01:31:18.949Z,4.1
2017-02-04T01:31:37.586Z,4.1
2017-02-04T01:31:56.224Z,4.2
2017-02-04T01:32:14.879Z,4.2
2017-02-04T01:32:33.512Z,4.2
2017-02-04T01:32:52.141Z,4.2
2017-02-04T01:33:10.770Z,4.2
2017-02-04T01:33:29.410Z,4.2
2017-02-04T01:33:48.048Z,4.1
2017-02-04T01:34:06.685Z,4.1
2017-02-04T01:34:25.323Z,4.1
2017-02-04T01:34:43.981Z,4.1
2017-02-04T01:35:02.614Z,4
2017-02-04T01:35:21.247Z,4
2017-02-04T01:35:39.879Z,4
2017-02-04T01:35:58.510Z,4
2017-02-04T01:36:17.140Z,4
2017-02-04T01:36:35.771Z,3.9
2017-02-04T01:36:54.406Z,3.9
2017-02-04T01:37:13.038Z,4
2017-02-04T01:37:31.679Z,3.9
2017-02-04T01:37:50.308Z,3.9
2017-02-04T01:38:08.969Z,3.9
2017-02-04T01:38:27.605Z,3.9
2017-02-04T01:38:46.246Z,3.9
2017-02-04T01:39:04.878Z,3.9
2017-02-04T01:39:23.517Z,3.8
2017-02-04T01:39:42.155Z,3.8
2017-02-04T01:40:00.788Z,3.8
2017-02-04T01:40:19.431Z,3.7
2017-02-04T01:40:38.068Z,3.7
2017-02-04T01:40:56.700Z,3.7
2017-02-04T01:41:15.337Z,3.6
2017-02-04T01:41:34.001Z,3.6
2017-02-04T01:41:52.637Z,3.6
2017-02-04T01:42:11.266Z,3.6
2017-02-04T01:42:29.894Z,3.6
2017-02-04T01:42:48.550Z,3.6
2017-02-04T01:43:07.194Z,3.6
2017-02-04T01:43:25.839Z,3.6
2017-02-04T01:43:44.468Z,3.6
2017-02-04T01:44:03.103Z,3.6
2017-02-04T01:44:21.742Z,3.7
2017-02-04T01:44:40.375Z,3.6
2017-02-04T01:44:59.046Z,3.6
2017-02-04T01:45:17.679Z,3.7
2017-02-04T01:45:36.307Z,3.7
2017-02-04T01:45:54.940Z,3.7
2017-02-04T01:46:13.574Z,3.7
2017-02-04T01:46:32.207Z,3.7
2017-02-04T01:46:50.838Z,3.7
2017-02-04T01:47:09.469Z,3.7
2017-02-04T01:47:28.103Z,3.7
2017-02-04T01:47:46.737Z,3.8
2017-02-04T01:48:05.382Z,3.8
2017-02-04T01:48:24.044Z,3.8
2017-02-04T01:48:42.677Z,3.8
2017-02-04T01:49:01.314Z,3.8
2017-02-04T01:49:19.951Z,3.7
2017-02-04T01:49:38.586Z,3.7
2017-02-04T01:49:57.217Z,3.7
2017-02-04T01:50:15.850Z,3.7
2017-02-04T01:50:34.493Z,3.7
2017-02-04T01:50:53.132Z,3.6
2017-02-04T01:51:11.766Z,3.7
2017-02-04T01:51:30.432Z,3.7
2017-02-04T01:51:49.080Z,3.7
2017-02-04T01:52:07.715Z,3.7
2017-02-04T01:52:26.353Z,3.7
2017-02-04T01:52:44.990Z,3.7
2017-02-04T01:53:03.617Z,3.8
2017-02-04T01:53:22.314Z,3.8
2017-02-04T01:53:40.943Z,3.8
2017-02-04T01:53:59.579Z,3.8
2017-02-04T01:54:18.213Z,3.8
2017-02-04T01:54:36.847Z,3.8
2017-02-04T01:54:55.484Z,3.8
2017-02-04T01:55:14.124Z,3.9
2017-02-04T01:55:32.759Z,3.9
2017-02-04T01:55:51.385Z,3.9
2017-02-04T01:56:10.017Z,3.9
2017-02-04T01:56:28.668Z,3.9
2017-02-04T01:56:47.340Z,3.8
2017-02-04T01:57:05.981Z,3.8
2017-02-04T01:57:24.614Z,3.8
2017-02-04T01:57:43.242Z,3.8
2017-02-04T01:58:01.872Z,3.8
2017-02-04T01:58:20.515Z,3.8
2017-02-04T01:58:39.169Z,3.7
2017-02-04T01:58:57.800Z,3.7
2017-02-04T01:59:16.436Z,3.6
2017-02-04T01:59:35.070Z,3.6
2017-02-04T01:59:53.720Z,3.6
2017-02-04T02:00:12.351Z,3.6
2017-02-04T02:00:30.978Z,3.6
2017-02-04T02:00:49.606Z,3.6
2017-02-04T02:01:08.237Z,3.6
2017-02-04T02:01:26.870Z,3.6
2017-02-04T02:01:45.504Z,3.6
2017-02-04T02:02:04.134Z,3.6
2017-02-04T02:02:22.768Z,3.6
2017-02-04T02:02:41.413Z,3.6
2017-02-04T02:03:00.050Z,3.6
2017-02-04T02:03:18.701Z,3.6
2017-02-04T02:03:37.334Z,3.6
2017-02-04T02:03:55.974Z,3.6
2017-02-04T02:04:14.609Z,3.6
2017-02-04T02:04:33.241Z,3.6
2017-02-04T02:04:51.877Z,3.6
2017-02-04T02:05:10.508Z,3.6
2017-02-04T02:05:29.133Z,3.6
2017-02-04T02:05:47.762Z,3.6
2017-02-04T02:06:06.396Z,3.6
2017-02-04T02:06:25.038Z,3.6
2017-02-04T02:06:43.679Z,3.6
2017-02-04T02:07:02.320Z,3.6
2017-02-04T02:07:20.956Z,3.6
2017-02-04T02:07:39.591Z,3.6
2017-02-04T02:07:58.227Z,3.6
2017-02-04T02:08:16.856Z,3.6
2017-02-04T02:08:35.483Z,3.6
2017-02-04T02:08:54.119Z,3.6
2017-02-04T02:09:12.773Z,3.6
2017-02-04T02:09:31.406Z,3.6
2017-02-04T02:09:50.037Z,3.6
2017-02-04T02:10:08.686Z,3.6
2017-02-04T02:10:27.327Z,3.6
2017-02-04T02:10:45.963Z,3.7
2017-02-04T02:11:04.599Z,3.7
2017-02-04T02:11:23.230Z,3.7
2017-02-04T02:11:41.864Z,3.8
2017-02-04T02:12:00.500Z,3.8
2017-02-04T02:12:19.138Z,3.9
2017-02-04T02:12:37.777Z,3.9
2017-02-04T02:12:56.412Z,3.9
2017-02-04T02:13:15.049Z,3.9
2017-02-04T02:13:33.714Z,3.9
2017-02-04T02:13:52.361Z,4
2017-02-04T02:14:10.995Z,4
2017-02-04T02:14:29.627Z,4
2017-02-04T02:14:48.267Z,4
2017-02-04T02:15:06.901Z,4
2017-02-04T02:15:25.536Z,4
2017-02-04T02:15:44.169Z,4
2017-02-04T02:16:02.798Z,4
2017-02-04T02:16:21.428Z,4
2017-02-04T02:16:40.059Z,4
2017-02-04T02:16:58.718Z,4
2017-02-04T02:17:17.352Z,4
2017-02-04T02:17:35.979Z,3.9
2017-02-04T02:17:54.611Z,3.9
2017-02-04T02:18:13.246Z,3.9
2017-02-04T02:18:31.882Z,3.9
2017-02-04T02:18:50.522Z,3.9
2017-02-04T02:19:09.159Z,3.9
2017-02-04T02:19:27.794Z,3.9
2017-02-04T02:19:46.451Z,3.9
2017-02-04T02:20:05.084Z,3.9
2017-02-04T02:20:23.749Z,3.9
2017-02-04T02:20:42.382Z,3.9
2017-02-04T02:21:01.016Z,3.9
2017-02-04T02:21:19.647Z,3.9
2017-02-04T02:21:38.287Z,3.9
2017-02-04T02:21:56.918Z,3.9
2017-02-04T02:22:15.557Z,3.9
2017-02-04T02:22:34.190Z,3.9
2017-02-04T02:22:52.821Z,3.9
2017-02-04T02:23:11.460Z,3.9
2017-02-04T02:23:30.101Z,3.9
2017-02-04T02:23:48.761Z,3.8
2017-02-04T02:24:07.390Z,3.8
2017-02-04T02:24:26.024Z,3.8
2017-02-04T02:24:44.656Z,3.8
2017-02-04T02:25:03.291Z,3.8
2017-02-04T02:25:21.930Z,3.9
2017-02-04T02:25:40.564Z,3.9
2017-02-04T02:25:59.193Z,4
2017-02-04T02:26:17.826Z,4
2017-02-04T02:26:36.463Z,4.1
2017-02-04T02:26:55.098Z,4.1
2017-02-04T02:27:13.756Z,4.1
2017-02-04T02:27:32.387Z,4.1
2017-02-04T02:27:51.024Z,4
2017-02-04T02:28:09.661Z,4
2017-02-04T02:28:28.293Z,4
2017-02-04T02:28:46.923Z,4
2017-02-04T02:29:05.571Z,4
2017-02-04T02:29:24.205Z,4
2017-02-04T02:29:42.840Z,4
2017-02-04T02:30:01.474Z,4.1
2017-02-04T02:30:20.123Z,4.1
2017-02-04T02:30:38.789Z,4.1
2017-02-04T02:30:57.422Z,4.1
2017-02-04T02:31:16.054Z,4.1
2017-02-04T02:31:34.687Z,4
2017-02-04T02:31:53.317Z,4
2017-02-04T02:32:11.946Z,4
2017-02-04T02:32:30.582Z,3.9
2017-02-04T02:32:49.218Z,3.9
2017-02-04T02:33:07.857Z,3.9
2017-02-04T02:33:26.492Z,3.9
2017-02-04T02:33:45.126Z,3.9
2017-02-04T02:34:03.792Z,3.9
2017-02-04T02:34:22.429Z,3.9
2017-02-04T02:34:41.067Z,3.9
2017-02-04T02:34:59.700Z,4
2017-02-04T02:35:18.339Z,4
2017-02-04T02:35:36.978Z,4
2017-02-04T02:35:55.617Z,4
2017-02-04T02:36:14.250Z,4
2017-02-04T02:36:32.883Z,4
2017-02-04T02:36:51.523Z,4
2017-02-04T02:37:10.156Z,4
2017-02-04T02:37:28.821Z,4
2017-02-04T02:37:47.453Z,3.9
2017-02-04T02:38:06.097Z,3.9
2017-02-04T02:38:24.731Z,3.9
2017-02-04T02:38:43.365Z,3.9
2017-02-04T02:39:02.003Z,3.9
2017-02-04T02:39:20.636Z,3.9
2017-02-04T02:39:39.270Z,3.9
2017-02-04T02:39:57.910Z,3.9
2017-02-04T02:40:16.548Z,3.9
2017-02-04T02:40:35.184Z,3.9
2017-02-04T02:40:53.861Z,3.9
2017-02-04T02:41:12.493Z,3.9
2017-02-04T02:41:31.138Z,3.9
2017-02-04T02:41:49.776Z,3.9
2017-02-04T02:42:08.410Z,3.9
2017-02-04T02:42:27.085Z,3.9
2017-02-04T02:42:45.725Z,4
2017-02-04T02:43:04.362Z,4
2017-02-04T02:43:22.997Z,4
2017-02-04T02:43:41.633Z,4
2017-02-04T02:44:00.277Z,4
2017-02-04T02:44:18.925Z,4
2017-02-04T02:44:37.558Z,4.1
2017-02-04T02:44:56.192Z,4.1
2017-02-04T02:45:14.827Z,4
2017-02-04T02:45:33.468Z,4
2017-02-04T02:45:52.135Z,4
2017-02-04T02:46:10.780Z,4
2017-02-04T02:46:29.414Z,4
2017-02-04T02:46:48.049Z,4
2017-02-04T02:47:06.678Z,3.9
2017-02-04T02:47:25.313Z,3.9
2017-02-04T02:47:43.951Z,3.9
2017-02-04T02:48:02.589Z,3.8
2017-02-04T02:48:21.223Z,3.8
2017-02-04T02:48:39.858Z,3.7
2017-02-04T02:48:58.511Z,3.7
2017-02-04T02:49:17.146Z,3.7
2017-02-04T02:49:35.780Z,3.7
2017-02-04T02:49:54.416Z,3.7
2017-02-04T02:50:13.045Z,3.7
2017-02-04T02:50:31.678Z,3.7
2017-02-04T02:50:50.309Z,3.7
2017-02-04T02:51:08.943Z,3.7
2017-02-04T02:51:27.588Z,3.7
2017-02-04T02:51:46.220Z,3.7
2017-02-04T02:52:04.847Z,3.8
2017-02-04T02:52:23.525Z,3.8
2017-02-04T02:52:42.156Z,3.8
2017-02-04T02:53:00.797Z,3.9
2017-02-04T02:53:19.427Z,3.9
2017-02-04T02:53:38.059Z,3.9
2017-02-04T02:53:56.696Z,3.9
2017-02-04T02:54:15.332Z,3.9
2017-02-04T02:54:33.971Z,3.9
2017-02-04T02:54:52.605Z,3.9
2017-02-04T02:55:11.240Z,3.9
2017-02-04T02:55:29.881Z,3.9
2017-02-04T02:55:48.542Z,3.9
2017-02-04T02:56:07.175Z,3.9
2017-02-04T02:56:25.802Z,3.9
2017-02-04T02:56:44.462Z,3.9
2017-02-04T02:57:03.092Z,3.9
2017-02-04T02:57:21.723Z,3.9
2017-02-04T02:57:40.358Z,3.9
2017-02-04T02:57:58.988Z,3.8
2017-02-04T02:58:17.633Z,3.8
2017-02-04T02:58:36.267Z,3.8
2017-02-04T02:58:54.904Z,3.8
2017-02-04T02:59:13.575Z,3.8
2017-02-04T02:59:32.209Z,3.8
2017-02-04T02:59:50.855Z,3.8
2017-02-04T03:00:09.494Z,3.7
2017-02-04T03:00:28.127Z,3.7
2017-02-04T03:00:46.769Z,3.7
2017-02-04T03:01:05.396Z,3.7
2017-02-04T03:01:24.034Z,3.7
2017-02-04T03:01:42.670Z,3.7
2017-02-04T03:02:01.319Z,3.7
2017-02-04T03:02:19.956Z,3.6
2017-02-04T03:02:38.615Z,3.6
2017-02-04T03:02:57.246Z,3.6
2017-02-04T03:03:15.889Z,3.6
2017-02-04T03:03:34.527Z,3.6
2017-02-04T03:03:53.170Z,3.6
2017-02-04T03:04:11.807Z,3.6
2017-02-04T03:04:30.437Z,3.6
2017-02-04T03:04:49.076Z,3.6
2017-02-04T03:05:07.711Z,3.6
2017-02-04T03:05:26.348Z,3.6
2017-02-04T03:05:44.977Z,3.6
2017-02-04T03:06:03.645Z,3.6
2017-02-04T03:06:22.292Z,3.6
2017-02-04T03:06:40.925Z,3.6
2017-02-04T03:06:59.563Z,3.6
2017-02-04T03:07:18.220Z,3.6
2017-02-04T03:07:36.859Z,3.6
2017-02-04T03:07:55.491Z,3.6
2017-02-04T03:08:14.121Z,3.7
2017-02-04T03:08:32.751Z,3.7
2017-02-04T03:08:51.382Z,3.6
2017-02-04T03:09:10.018Z,3.6
2017-02-04T03:09:28.686Z,3.6
2017-02-04T03:09:47.319Z,3.6
2017-02-04T03:10:05.951Z,3.6
2017-02-04T03:10:24.582Z,3.6
2017-02-04T03:10:43.219Z,3.6
2017-02-04T03:11:01.852Z,3.6
2017-02-04T03:11:20.486Z,3.6
2017-02-04T03:11:39.118Z,3.7
2017-02-04T03:11:57.747Z,3.7
2017-02-04T03:12:16.375Z,3.7
2017-02-04T03:12:35.017Z,3.7
2017-02-04T03:12:53.684Z,3.7
2017-02-04T03:13:12.325Z,3.7
2017-02-04T03:13:30.955Z,3.7
2017-02-04T03:13:49.590Z,3.6
2017-02-04T03:14:08.225Z,3.6
2017-02-04T03:14:26.861Z,3.6
2017-02-04T03:14:45.516Z,3.5
2017-02-04T03:15:04.146Z,3.5
2017-02-04T03:15:22.775Z,3.5
2017-02-04T03:15:41.413Z,3.4
2017-02-04T03:16:00.044Z,3.4
2017-02-04T03:16:18.701Z,3.5
2017-02-04T03:16:37.334Z,3.5
2017-02-04T03:16:55.962Z,3.5
2017-02-04T03:17:14.602Z,3.4
2017-02-04T03:17:33.231Z,3.4
2017-02-04T03:17:51.907Z,3.4
2017-02-04T03:18:10.541Z,3.4
2017-02-04T03:18:29.171Z,3.4
2017-02-04T03:18:47.806Z,3.4
2017-02-04T03:19:06.439Z,3.3
2017-02-04T03:19:25.070Z,3.3
2017-02-04T03:19:43.715Z,3.3
2017-02-04T03:20:02.341Z,3.3
2017-02-04T03:20:20.976Z,3.3
2017-02-04T03:20:39.620Z,3.3
2017-02-04T03:20:58.249Z,3.3
2017-02-04T03:21:16.921Z,3.3
2017-02-04T03:21:35.551Z,3.3
2017-02-04T03:21:54.181Z,3.3
2017-02-04T03:22:12.819Z,3.3
2017-02-04T03:22:31.450Z,3.3
2017-02-04T03:22:50.090Z,3.3
2017-02-04T03:23:08.732Z,3.4
2017-02-04T03:23:27.360Z,3.4
2017-02-04T03:23:46.006Z,3.4
2017-02-04T03:24:04.636Z,3.4
2017-02-04T03:24:23.276Z,3.4
2017-02-04T03:24:41.953Z,3.4
2017-02-04T03:25:00.583Z,3.4
2017-02-04T03:25:19.219Z,3.4
2017-02-04T03:25:37.854Z,3.4
2017-02-04T03:25:56.487Z,3.4
2017-02-04T03:26:15.119Z,3.5
2017-02-04T03:26:33.746Z,3.5
2017-02-04T03:26:52.381Z,3.5
2017-02-04T03:27:11.017Z,3.6
2017-02-04T03:27:29.652Z,3.6
2017-02-04T03:27:48.292Z,3.6
2017-02-04T03:28:06.954Z,3.6
2017-02-04T03:28:25.615Z,3.6
2017-02-04T03:28:44.248Z,3.6
2017-02-04T03:29:02.884Z,3.7
2017-02-04T03:29:21.519Z,3.7
2017-02-04T03:29:40.148Z,3.7
2017-02-04T03:29:58.794Z,3.8
2017-02-04T03:30:17.429Z,3.8
2017-02-04T03:30:36.063Z,3.8
2017-02-04T03:30:54.694Z,3.9
2017-02-04T03:31:13.350Z,3.9
2017-02-04T03:31:31.990Z,3.9
2017-02-04T03:31:50.622Z,3.9
2017-02-04T03:32:09.257Z,3.9
2017-02-04T03:32:27.890Z,3.9
2017-02-04T03:32:46.530Z,3.9
2017-02-04T03:33:05.164Z,3.9
2017-02-04T03:33:23.800Z,3.9
2017-02-04T03:33:42.447Z,3.9
2017-02-04T03:34:01.078Z,3.9
2017-02-04T03:34:19.722Z,3.9
2017-02-04T03:34:38.386Z,3.9
2017-02-04T03:34:57.026Z,3.9
2017-02-04T03:35:15.668Z,4
2017-02-04T03:35:34.298Z,4
2017-02-04T03:35:52.932Z,4
2017-02-04T03:36:11.568Z,4
2017-02-04T03:36:30.206Z,4
2017-02-04T03:36:48.835Z,4
2017-02-04T03:37:07.470Z,4.1
2017-02-04T03:37:26.115Z,4.1
2017-02-04T03:37:44.754Z,4.1
2017-02-04T03:38:03.417Z,4.1
2017-02-04T03:38:22.052Z,4.1
2017-02-04T03:38:40.683Z,4.2
2017-02-04T03:38:59.337Z,4.2
2017-02-04T03:39:17.971Z,4.2
2017-02-04T03:39:36.610Z,4.2
2017-02-04T03:39:55.240Z,4.1
2017-02-04T03:40:13.873Z,4.2
2017-02-04T03:40:32.512Z,4.2
2017-02-04T03:40:51.146Z,4.1
2017-02-04T03:41:09.783Z,4.1
2017-02-04T03:41:28.449Z,4.1
2017-02-04T03:41:47.080Z,4.1
2017-02-04T03:42:05.713Z,4.1
2017-02-04T03:42:24.348Z,4.1
2017-02-04T03:42:42.983Z,4.1
2017-02-04T03:43:01.618Z,4.1
2017-02-04T03:43:20.246Z,4.1
2017-02-04T03:43:38.881Z,4.1
2017-02-04T03:43:57.517Z,4.1
2017-02-04T03:44:16.165Z,4.2
2017-02-04T03:44:34.802Z,4.1
2017-02-04T03:44:53.457Z,4.1
2017-02-04T03:45:12.103Z,4.2
2017-02-04T03:45:30.741Z,4.2
2017-02-04T03:45:49.375Z,4.2
2017-02-04T03:46:08.003Z,4.2
2017-02-04T03:46:26.639Z,4.2
2017-02-04T03:46:45.277Z,4.2
2017-02-04T03:47:03.907Z,4.2
2017-02-04T03:47:22.541Z,4.2
2017-02-04T03:47:41.176Z,4.2
2017-02-04T03:47:59.810Z,4.2
2017-02-04T03:48:18.467Z,4.2
2017-02-04T03:48:37.101Z,4.2
2017-02-04T03:48:55.735Z,4.2
2017-02-04T03:49:14.369Z,4.2
2017-02-04T03:49:33.019Z,4.2
2017-02-04T03:49:51.657Z,4.2
2017-02-04T03:50:10.294Z,4.2
2017-02-04T03:50:28.930Z,4.2
2017-02-04T03:50:47.571Z,4.2
2017-02-04T03:51:06.201Z,4.2
2017-02-04T03:51:24.834Z,4.1
2017-02-04T03:51:43.504Z,4.1
2017-02-04T03:52:02.139Z,4.1
2017-02-04T03:52:20.785Z,4.1
2017-02-04T03:52:39.428Z,4.1
2017-02-04T03:52:58.065Z,4.1
2017-02-04T03:53:16.707Z,4.1
2017-02-04T03:53:35.344Z,4.1
2017-02-04T03:53:53.973Z,4.1
2017-02-04T03:54:12.607Z,4.1
2017-02-04T03:54:31.246Z,4.2
2017-02-04T03:54:49.890Z,4.2
2017-02-04T03:55:08.541Z,4.2
2017-02-04T03:55:27.171Z,4.2
2017-02-04T03:55:45.797Z,4.2
2017-02-04T03:56:04.427Z,4.1
2017-02-04T03:56:23.070Z,4.1
2017-02-04T03:56:41.743Z,4.1
2017-02-04T03:57:00.376Z,4.1
2017-02-04T03:57:19.007Z,4.1
2017-02-04T03:57:37.645Z,4.1
2017-02-04T03:57:56.277Z,4.1
2017-02-04T03:58:14.915Z,4.1
2017-02-04T03:58:33.555Z,4.2
2017-02-04T03:58:52.219Z,4.2
2017-02-04T03:59:10.857Z,4.2
2017-02-04T03:59:29.497Z,4.2
2017-02-04T03:59:48.143Z,4.2
2017-02-04T04:00:06.829Z,4.3
2017-02-04T04:00:25.481Z,4.3
2017-02-04T04:00:44.114Z,4.3
2017-02-04T04:01:02.749Z,4.3
2017-02-04T04:01:21.381Z,4.3
2017-02-04T04:01:40.016Z,4.3
2017-02-04T04:01:58.649Z,4.3
2017-02-04T04:02:17.279Z,4.3
2017-02-04T04:02:35.915Z,4.3
2017-02-04T04:02:54.547Z,4.3
2017-02-04T04:03:13.199Z,4.3
2017-02-04T04:03:31.832Z,4.3
2017-02-04T04:03:50.467Z,4.2
2017-02-04T04:04:09.100Z,4.2
2017-02-04T04:04:27.728Z,4.1
2017-02-04T04:04:46.359Z,4.1
2017-02-04T04:05:04.993Z,4
2017-02-04T04:05:23.640Z,3.9
2017-02-04T04:05:42.278Z,3.9
2017-02-04T04:06:00.907Z,3.8
2017-02-04T04:06:19.535Z,3.7
2017-02-04T04:06:38.185Z,3.7
2017-02-04T04:06:56.827Z,3.6
2017-02-04T04:07:15.461Z,3.6
2017-02-04T04:07:34.088Z,3.5
2017-02-04T04:07:52.717Z,3.5
2017-02-04T04:08:11.350Z,3.4
2017-02-04T04:08:29.986Z,3.4
2017-02-04T04:08:48.619Z,3.4
2017-02-04T04:09:07.251Z,3.4
2017-02-04T04:09:25.879Z,3.4
2017-02-04T04:09:44.512Z,3.4
2017-02-04T04:10:03.165Z,3.4
2017-02-04T04:10:21.798Z,3.4
2017-02-04T04:10:40.432Z,3.4
2017-02-04T04:10:59.062Z,3.4
2017-02-04T04:11:17.695Z,3.4
2017-02-04T04:11:36.328Z,3.4
2017-02-04T04:11:54.961Z,3.5
2017-02-04T04:12:13.596Z,3.5
2017-02-04T04:12:32.225Z,3.5
2017-02-04T04:12:50.861Z,3.5
2017-02-04T04:13:09.501Z,3.6
2017-02-04T04:13:28.149Z,3.6
2017-02-04T04:13:46.787Z,3.6
2017-02-04T04:14:05.416Z,3.6
2017-02-04T04:14:24.047Z,3.6
2017-02-04T04:14:42.679Z,3.6
2017-02-04T04:15:01.310Z,3.7
2017-02-04T04:15:19.942Z,3.7
2017-02-04T04:15:38.593Z,3.8
2017-02-04T04:15:57.236Z,3.8
2017-02-04T04:16:15.869Z,3.8
2017-02-04T04:16:34.504Z,3.8
2017-02-04T04:16:53.156Z,3.9
2017-02-04T04:17:11.790Z,3.9
2017-02-04T04:17:30.431Z,3.9
2017-02-04T04:17:49.073Z,3.9
2017-02-04T04:18:07.701Z,3.9
2017-02-04T04:18:26.340Z,3.9
2017-02-04T04:18:44.970Z,3.8
2017-02-04T04:19:03.610Z,3.8